00:11
Airports
Links
Donate
Help keep this website running!
PayPal
Bitcoin
METAR
RKJK 242356Z AUTO 11007KT 10SM CLR 03/00 A3034 RMK AO2 SLP279 T00280004 10028 20001 58001 $
Current Weather Conditions at RKJK
VFR 23:56:00 24-11-17
Automated station, no observer
Altimeter:30.34 hg
Temp:2.8°c 36°f
Dew point:0.4°c 32°f
Wind:7 knots, 8.1 mph, 4 m/s, from 110°
Visibility:10.0 statute miles
(CLR) Clear
Past METAR reports
VFR 22:56:00 24-11-17
Automated station, no observer
Altimeter:30.34 hg
Temp:1.4°c 34°f
Dew point:-0.5°c 32°f
Wind:9 knots, 10.4 mph, 5 m/s, from 130°
Visibility:10.0 statute miles
(CLR) Clear
RKJK 242256Z AUTO 13009KT 10SM CLR 01/00 A3034 RMK AO2 SLP279 T00141005 $
VFR 22:09:00 24-11-17
Automated station, no observer
Altimeter:30.34 hg
Temp:1.0°c 34°f
Dew point:-1.0°c 30°f
Wind:6 knots, 6.9 mph, 3 m/s, from 120°
Visibility:10.0 statute miles
5500(SCT) Scattered
RKJK 242209Z AUTO 12006KT 10SM SCT055 01/M01 A3034 RMK AO2 SLP279 $
VFR 21:56:00 24-11-17
Automated station, no observer
Altimeter:30.34 hg
Temp:1.4°c 34°f
Dew point:-0.4°c 32°f
Wind:7 knots, 8.1 mph, 4 m/s, from 120°
Visibility:10.0 statute miles
6000(SCT) Scattered
RKJK 242156Z AUTO 12007KT 10SM R36/4500FT SCT060 01/00 A3034 RMK AO2 SLP279 T00141004 $
VFR 20:56:00 24-11-17
Automated station, no observer
Altimeter:30.34 hg
Temp:0.9°c 32°f
Dew point:-0.3°c 32°f
Wind:7 knots, 8.1 mph, 4 m/s, from 110°
Visibility:10.0 statute miles
5500(OVC) Overcast
RKJK 242056Z AUTO 11007KT 10SM R36/4500FT OVC055 01/00 A3034 RMK AO2 SLP279 T00091003 57003 $
VFR 19:56:00 24-11-17
Automated station, no observer
Altimeter:30.34 hg
Temp:0.6°c 32°f
Dew point:-0.4°c 32°f
Wind:7 knots, 8.1 mph, 4 m/s, from 120°
Visibility:10.0 statute miles
4600(OVC) Overcast
RKJK 241956Z AUTO 12007KT 10SM R36/4500FT OVC046 01/00 A3034 RMK AO2 SLP279 T00061004 $
VFR 18:56:00 24-11-17
Automated station, no observer
Altimeter:30.35 hg
Temp:0.2°c 32°f
Dew point:-0.5°c 32°f
Wind:9 knots, 10.4 mph, 5 m/s, from 110°
Visibility:10.0 statute miles
6000(BKN) Broken
4700(FEW) A few
RKJK 241856Z AUTO 11009KT 10SM R36/4500FT FEW047 BKN060 00/00 A3035 RMK AO2 SLP282 T00021005 $
TAF
TAF RKJK 242300Z 2423/2605 VRB06KT 9999 SCT050 BKN070 QNH3032INS BECMG 2502/2503 19012KT 9999 SCT030 BKN050 QNH3023INS BECMG 2505/2506 21015G25KT 9999 BKN030 QNH3020INS BECMG 2510/2511 21009KT 9999 SCT040 QNH3012INS TX10/2506Z TN00/2518Z
Forecast at RKJK
23:00 24-11-17 to 02:00 25-11-17
Wind:6 Knots from 360°
Visibility:6.21 statute miles
5000SCT Scattered
7000BKN Broken
BECMG 02:00 25-11-17 to 05:00 25-11-17
Wind:12 Knots from 190°
Visibility:6.21 statute miles
3000SCT Scattered
5000BKN Broken
BECMG 05:00 25-11-17 to 10:00 25-11-17
Wind:15 Knots from 210°
Visibility:6.21 statute miles
3000BKN Broken
BECMG 10:00 25-11-17 to 05:00 26-11-17
Wind:9 Knots from 210°
Visibility:6.21 statute miles
4000SCT Scattered